sensor_id;sensor_type;location;lat;lon;timestamp;temperature;humidity
30764;DHT22;17497;51.476;7.770;2023-02-01T00:00:35;4.60;99.90
30764;DHT22;17497;51.476;7.770;2023-02-01T00:03:01;4.70;99.90
30764;DHT22;17497;51.476;7.770;2023-02-01T00:05:28;4.70;99.90
30764;DHT22;17497;51.476;7.770;2023-02-01T00:07:55;4.80;99.90
30764;DHT22;17497;51.476;7.770;2023-02-01T00:10:26;4.80;99.90
30764;DHT22;17497;51.476;7.770;2023-02-01T00:12:53;4.80;99.90
30764;DHT22;17497;51.476;7.770;2023-02-01T00:15:21;4.80;99.90
30764;DHT22;17497;51.476;7.770;2023-02-01T00:17:55;4.80;99.90
30764;DHT22;17497;51.476;7.770;2023-02-01T00:20:23;4.90;99.90
30764;DHT22;17497;51.476;7.770;2023-02-01T00:22:49;5.00;99.90
30764;DHT22;17497;51.476;7.770;2023-02-01T00:25:16;5.00;99.90
30764;DHT22;17497;51.476;7.770;2023-02-01T00:27:49;5.00;99.90
30764;DHT22;17497;51.476;7.770;2023-02-01T00:30:17;5.00;99.90
30764;DHT22;17497;51.476;7.770;2023-02-01T00:32:44;5.00;99.90
30764;DHT22;17497;51.476;7.770;2023-02-01T00:35:10;5.00;99.90
30764;DHT22;17497;51.476;7.770;2023-02-01T00:37:37;5.10;99.90
30764;DHT22;17497;51.476;7.770;2023-02-01T00:40:04;5.10;99.90
30764;DHT22;17497;51.476;7.770;2023-02-01T00:42:31;5.10;99.90
30764;DHT22;17497;51.476;7.770;2023-02-01T00:44:58;5.10;99.90
30764;DHT22;17497;51.476;7.770;2023-02-01T00:47:24;5.20;99.90
30764;DHT22;17497;51.476;7.770;2023-02-01T00:49:51;5.10;99.90
30764;DHT22;17497;51.476;7.770;2023-02-01T00:52:19;5.10;99.90
30764;DHT22;17497;51.476;7.770;2023-02-01T00:54:46;5.20;99.90
30764;DHT22;17497;51.476;7.770;2023-02-01T00:57:13;5.20;99.90
30764;DHT22;17497;51.476;7.770;2023-02-01T00:59:39;5.10;99.90
30764;DHT22;17497;51.476;7.770;2023-02-01T01:02:07;5.20;99.90
30764;DHT22;17497;51.476;7.770;2023-02-01T01:04:34;5.20;99.90
30764;DHT22;17497;51.476;7.770;2023-02-01T01:07:01;5.10;99.90
30764;DHT22;17497;51.476;7.770;2023-02-01T01:09:28;5.10;99.90
30764;DHT22;17497;51.476;7.770;2023-02-01T01:11:55;5.10;99.90
30764;DHT22;17497;51.476;7.770;2023-02-01T01:14:22;5.10;99.90
30764;DHT22;17497;51.476;7.770;2023-02-01T01:16:48;5.20;99.90
30764;DHT22;17497;51.476;7.770;2023-02-01T01:19:17;5.10;99.90
30764;DHT22;17497;51.476;7.770;2023-02-01T01:21:44;5.20;99.90
30764;DHT22;17497;51.476;7.770;2023-02-01T01:24:11;5.20;99.90
30764;DHT22;17497;51.476;7.770;2023-02-01T01:26:38;5.20;99.90
30764;DHT22;17497;51.476;7.770;2023-02-01T01:29:05;5.20;99.90
30764;DHT22;17497;51.476;7.770;2023-02-01T01:31:33;5.20;99.90
30764;DHT22;17497;51.476;7.770;2023-02-01T01:34:00;5.20;99.90
30764;DHT22;17497;51.476;7.770;2023-02-01T01:36:27;5.20;99.90
30764;DHT22;17497;51.476;7.770;2023-02-01T01:38:57;5.20;99.90
30764;DHT22;17497;51.476;7.770;2023-02-01T01:41:26;5.20;99.90
30764;DHT22;17497;51.476;7.770;2023-02-01T01:44:00;5.20;99.90
30764;DHT22;17497;51.476;7.770;2023-02-01T01:46:36;5.10;99.90
30764;DHT22;17497;51.476;7.770;2023-02-01T01:49:15;5.10;99.90
30764;DHT22;17497;51.476;7.770;2023-02-01T01:51:55;5.10;99.90
30764;DHT22;17497;51.476;7.770;2023-02-01T01:54:29;5.10;99.90
30764;DHT22;17497;51.476;7.770;2023-02-01T01:57:01;5.10;99.90
30764;DHT22;17497;51.476;7.770;2023-02-01T01:59:31;5.00;99.90
30764;DHT22;17497;51.476;7.770;2023-02-01T02:01:59;5.10;99.90
30764;DHT22;17497;51.476;7.770;2023-02-01T02:04:26;5.00;99.90
30764;DHT22;17497;51.476;7.770;2023-02-01T02:07:06;5.10;99.90
30764;DHT22;17497;51.476;7.770;2023-02-01T02:09:36;5.10;99.90
30764;DHT22;17497;51.476;7.770;2023-02-01T02:12:04;5.10;99.90
30764;DHT22;17497;51.476;7.770;2023-02-01T02:14:31;5.10;99.90
30764;DHT22;17497;51.476;7.770;2023-02-01T02:17:49;5.10;99.90
30764;DHT22;17497;51.476;7.770;2023-02-01T02:20:14;5.10;99.90
30764;DHT22;17497;51.476;7.770;2023-02-01T02:25:37;5.00;99.90
30764;DHT22;17497;51.476;7.770;2023-02-01T02:31:25;5.00;99.90
30764;DHT22;17497;51.476;7.770;2023-02-01T02:40:17;5.00;99.90
30764;DHT22;17497;51.476;7.770;2023-02-01T02:45:40;5.00;99.90
30764;DHT22;17497;51.476;7.770;2023-02-01T02:48:29;5.10;99.90
30764;DHT22;17497;51.476;7.770;2023-02-01T02:51:07;5.00;99.90
30764;DHT22;17497;51.476;7.770;2023-02-01T02:54:11;5.10;99.90
30764;DHT22;17497;51.476;7.770;2023-02-01T02:57:00;5.10;99.90
30764;DHT22;17497;51.476;7.770;2023-02-01T02:59:47;5.10;99.90
30764;DHT22;17497;51.476;7.770;2023-02-01T03:02:34;5.10;99.90
30764;DHT22;17497;51.476;7.770;2023-02-01T03:05:21;5.10;99.90
30764;DHT22;17497;51.476;7.770;2023-02-01T03:13:56;5.10;99.90
30764;DHT22;17497;51.476;7.770;2023-02-01T03:21:44;5.10;99.90
30764;DHT22;17497;51.476;7.770;2023-02-01T03:24:24;5.00;99.90
30764;DHT22;17497;51.476;7.770;2023-02-01T03:27:10;5.00;99.90
30764;DHT22;17497;51.476;7.770;2023-02-01T03:32:13;5.00;99.90
30764;DHT22;17497;51.476;7.770;2023-02-01T03:34:40;5.00;99.90
30764;DHT22;17497;51.476;7.770;2023-02-01T03:37:10;4.90;99.90
30764;DHT22;17497;51.476;7.770;2023-02-01T03:40:06;4.90;99.90
30764;DHT22;17497;51.476;7.770;2023-02-01T03:42:37;4.90;99.90
30764;DHT22;17497;51.476;7.770;2023-02-01T03:45:22;4.90;99.90
30764;DHT22;17497;51.476;7.770;2023-02-01T03:47:53;4.90;99.90
30764;DHT22;17497;51.476;7.770;2023-02-01T03:50:23;4.90;99.90
30764;DHT22;17497;51.476;7.770;2023-02-01T03:53:06;4.90;99.90
30764;DHT22;17497;51.476;7.770;2023-02-01T03:55:35;4.90;99.90
30764;DHT22;17497;51.476;7.770;2023-02-01T03:58:20;4.90;99.90
30764;DHT22;17497;51.476;7.770;2023-02-01T04:00:56;4.90;99.90
30764;DHT22;17497;51.476;7.770;2023-02-01T04:03:25;4.90;99.90
30764;DHT22;17497;51.476;7.770;2023-02-01T04:05:53;4.90;99.90
30764;DHT22;17497;51.476;7.770;2023-02-01T04:08:20;4.90;99.90
30764;DHT22;17497;51.476;7.770;2023-02-01T04:10:47;4.90;99.90
30764;DHT22;17497;51.476;7.770;2023-02-01T04:13:14;4.90;99.90
30764;DHT22;17497;51.476;7.770;2023-02-01T04:15:41;4.90;99.90
30764;DHT22;17497;51.476;7.770;2023-02-01T04:18:09;4.90;99.90
30764;DHT22;17497;51.476;7.770;2023-02-01T04:20:37;4.90;99.90
30764;DHT22;17497;51.476;7.770;2023-02-01T04:23:05;4.90;99.90
30764;DHT22;17497;51.476;7.770;2023-02-01T04:25:32;4.90;99.90
30764;DHT22;17497;51.476;7.770;2023-02-01T04:27:58;5.00;99.90
30764;DHT22;17497;51.476;7.770;2023-02-01T04:30:25;5.00;99.90
30764;DHT22;17497;51.476;7.770;2023-02-01T04:32:53;5.00;99.90
30764;DHT22;17497;51.476;7.770;2023-02-01T04:35:19;5.00;99.90
30764;DHT22;17497;51.476;7.770;2023-02-01T04:37:46;5.00;99.90
30764;DHT22;17497;51.476;7.770;2023-02-01T04:40:16;5.00;99.90
30764;DHT22;17497;51.476;7.770;2023-02-01T04:42:43;5.00;99.90
30764;DHT22;17497;51.476;7.770;2023-02-01T04:45:11;5.10;99.90
30764;DHT22;17497;51.476;7.770;2023-02-01T04:47:40;5.00;99.90
30764;DHT22;17497;51.476;7.770;2023-02-01T04:50:08;5.00;99.90
30764;DHT22;17497;51.476;7.770;2023-02-01T04:52:37;5.10;99.90
30764;DHT22;17497;51.476;7.770;2023-02-01T04:55:04;5.10;99.90
30764;DHT22;17497;51.476;7.770;2023-02-01T04:57:31;5.10;99.90
30764;DHT22;17497;51.476;7.770;2023-02-01T04:59:58;5.00;99.90
30764;DHT22;17497;51.476;7.770;2023-02-01T05:02:24;5.10;99.90
30764;DHT22;17497;51.476;7.770;2023-02-01T05:04:51;5.10;99.90
30764;DHT22;17497;51.476;7.770;2023-02-01T05:07:18;5.00;99.90
30764;DHT22;17497;51.476;7.770;2023-02-01T05:09:45;5.00;99.90
30764;DHT22;17497;51.476;7.770;2023-02-01T05:12:12;5.00;99.90
30764;DHT22;17497;51.476;7.770;2023-02-01T05:14:59;5.10;99.90
30764;DHT22;17497;51.476;7.770;2023-02-01T05:17:26;5.10;99.90
30764;DHT22;17497;51.476;7.770;2023-02-01T05:19:52;5.10;99.90
30764;DHT22;17497;51.476;7.770;2023-02-01T05:22:19;5.10;99.90
30764;DHT22;17497;51.476;7.770;2023-02-01T05:24:48;5.00;99.90
30764;DHT22;17497;51.476;7.770;2023-02-01T05:27:15;5.00;99.90
30764;DHT22;17497;51.476;7.770;2023-02-01T05:29:42;5.10;99.90
30764;DHT22;17497;51.476;7.770;2023-02-01T05:32:09;5.00;99.90
30764;DHT22;17497;51.476;7.770;2023-02-01T05:34:48;5.00;99.90
30764;DHT22;17497;51.476;7.770;2023-02-01T05:37:15;5.00;99.90
30764;DHT22;17497;51.476;7.770;2023-02-01T05:39:42;5.00;99.90
30764;DHT22;17497;51.476;7.770;2023-02-01T05:42:09;5.00;99.90
30764;DHT22;17497;51.476;7.770;2023-02-01T05:44:35;5.00;99.90
30764;DHT22;17497;51.476;7.770;2023-02-01T05:47:02;5.00;99.90
30764;DHT22;17497;51.476;7.770;2023-02-01T05:49:29;5.00;99.90
30764;DHT22;17497;51.476;7.770;2023-02-01T05:51:57;5.00;99.90
30764;DHT22;17497;51.476;7.770;2023-02-01T05:54:26;5.00;99.90
30764;DHT22;17497;51.476;7.770;2023-02-01T05:56:55;5.00;99.90
30764;DHT22;17497;51.476;7.770;2023-02-01T05:59:22;5.00;99.90
30764;DHT22;17497;51.476;7.770;2023-02-01T06:01:49;5.00;99.90
30764;DHT22;17497;51.476;7.770;2023-02-01T06:04:16;5.00;99.90
30764;DHT22;17497;51.476;7.770;2023-02-01T06:06:43;5.00;99.90
30764;DHT22;17497;51.476;7.770;2023-02-01T06:09:10;5.00;99.90
30764;DHT22;17497;51.476;7.770;2023-02-01T06:11:36;5.00;99.90
30764;DHT22;17497;51.476;7.770;2023-02-01T06:14:03;5.00;99.90
30764;DHT22;17497;51.476;7.770;2023-02-01T06:16:30;5.00;99.90
30764;DHT22;17497;51.476;7.770;2023-02-01T06:18:58;5.00;99.90
30764;DHT22;17497;51.476;7.770;2023-02-01T06:21:25;5.00;99.90
30764;DHT22;17497;51.476;7.770;2023-02-01T06:23:53;5.00;99.90
30764;DHT22;17497;51.476;7.770;2023-02-01T06:26:21;5.10;99.90
30764;DHT22;17497;51.476;7.770;2023-02-01T06:28:49;5.10;99.90
30764;DHT22;17497;51.476;7.770;2023-02-01T06:31:15;5.10;99.90
30764;DHT22;17497;51.476;7.770;2023-02-01T06:33:42;5.00;99.90
30764;DHT22;17497;51.476;7.770;2023-02-01T06:36:10;5.00;99.90
30764;DHT22;17497;51.476;7.770;2023-02-01T06:38:39;5.00;99.90
30764;DHT22;17497;51.476;7.770;2023-02-01T06:41:06;5.00;99.90
30764;DHT22;17497;51.476;7.770;2023-02-01T06:43:32;5.00;99.90
30764;DHT22;17497;51.476;7.770;2023-02-01T06:46:01;5.00;99.90
30764;DHT22;17497;51.476;7.770;2023-02-01T06:48:29;5.00;99.90
30764;DHT22;17497;51.476;7.770;2023-02-01T06:50:56;5.00;99.90
30764;DHT22;17497;51.476;7.770;2023-02-01T06:53:26;5.00;99.90
30764;DHT22;17497;51.476;7.770;2023-02-01T06:55:57;5.00;99.90
30764;DHT22;17497;51.476;7.770;2023-02-01T06:58:31;5.00;99.90
30764;DHT22;17497;51.476;7.770;2023-02-01T07:01:03;5.00;99.90
30764;DHT22;17497;51.476;7.770;2023-02-01T07:03:30;5.00;99.90
30764;DHT22;17497;51.476;7.770;2023-02-01T07:05:58;5.00;99.90
30764;DHT22;17497;51.476;7.770;2023-02-01T07:08:28;5.00;99.90
30764;DHT22;17497;51.476;7.770;2023-02-01T07:10:56;5.00;99.90
30764;DHT22;17497;51.476;7.770;2023-02-01T07:13:23;5.00;99.90
30764;DHT22;17497;51.476;7.770;2023-02-01T07:15:50;5.00;99.90
30764;DHT22;17497;51.476;7.770;2023-02-01T07:18:17;5.00;99.90
30764;DHT22;17497;51.476;7.770;2023-02-01T07:20:49;5.00;99.90
30764;DHT22;17497;51.476;7.770;2023-02-01T07:23:16;5.00;99.90
30764;DHT22;17497;51.476;7.770;2023-02-01T07:25:44;5.00;99.90
30764;DHT22;17497;51.476;7.770;2023-02-01T07:28:11;5.00;99.90
30764;DHT22;17497;51.476;7.770;2023-02-01T07:30:37;5.00;99.90
30764;DHT22;17497;51.476;7.770;2023-02-01T07:33:04;5.00;99.90
30764;DHT22;17497;51.476;7.770;2023-02-01T07:35:31;5.00;99.90
30764;DHT22;17497;51.476;7.770;2023-02-01T07:38:00;5.00;99.90
30764;DHT22;17497;51.476;7.770;2023-02-01T07:40:27;5.10;99.90
30764;DHT22;17497;51.476;7.770;2023-02-01T07:42:55;5.00;99.90
30764;DHT22;17497;51.476;7.770;2023-02-01T07:45:23;5.10;99.90
30764;DHT22;17497;51.476;7.770;2023-02-01T07:47:51;5.00;99.90
30764;DHT22;17497;51.476;7.770;2023-02-01T07:50:18;5.00;99.90
30764;DHT22;17497;51.476;7.770;2023-02-01T07:52:44;5.10;99.90
30764;DHT22;17497;51.476;7.770;2023-02-01T07:55:11;5.00;99.90
30764;DHT22;17497;51.476;7.770;2023-02-01T07:57:38;5.10;99.90
30764;DHT22;17497;51.476;7.770;2023-02-01T08:00:06;5.10;99.90
30764;DHT22;17497;51.476;7.770;2023-02-01T08:02:52;5.10;99.90
30764;DHT22;17497;51.476;7.770;2023-02-01T08:05:19;5.10;99.90
30764;DHT22;17497;51.476;7.770;2023-02-01T08:07:49;5.10;99.90
30764;DHT22;17497;51.476;7.770;2023-02-01T08:10:17;5.10;99.90
30764;DHT22;17497;51.476;7.770;2023-02-01T08:12:45;5.10;99.90
30764;DHT22;17497;51.476;7.770;2023-02-01T08:15:14;5.10;99.90
30764;DHT22;17497;51.476;7.770;2023-02-01T08:17:48;5.20;99.90
30764;DHT22;17497;51.476;7.770;2023-02-01T08:20:16;5.10;99.90
30764;DHT22;17497;51.476;7.770;2023-02-01T08:22:43;5.10;99.90
30764;DHT22;17497;51.476;7.770;2023-02-01T08:25:11;5.10;99.90
30764;DHT22;17497;51.476;7.770;2023-02-01T08:27:38;5.10;99.90
30764;DHT22;17497;51.476;7.770;2023-02-01T08:30:05;5.10;99.90
30764;DHT22;17497;51.476;7.770;2023-02-01T08:32:34;5.10;99.90
30764;DHT22;17497;51.476;7.770;2023-02-01T08:35:01;5.10;99.90
30764;DHT22;17497;51.476;7.770;2023-02-01T08:37:28;5.10;99.90
30764;DHT22;17497;51.476;7.770;2023-02-01T08:39:55;5.20;99.90
30764;DHT22;17497;51.476;7.770;2023-02-01T08:42:22;5.20;99.90
30764;DHT22;17497;51.476;7.770;2023-02-01T08:45:08;5.10;99.90
30764;DHT22;17497;51.476;7.770;2023-02-01T08:47:35;5.20;99.90
30764;DHT22;17497;51.476;7.770;2023-02-01T08:50:02;5.20;99.90
30764;DHT22;17497;51.476;7.770;2023-02-01T08:52:30;5.20;99.90
30764;DHT22;17497;51.476;7.770;2023-02-01T08:54:57;5.20;99.90
30764;DHT22;17497;51.476;7.770;2023-02-01T08:57:23;5.20;99.90
30764;DHT22;17497;51.476;7.770;2023-02-01T08:59:50;5.20;99.90
30764;DHT22;17497;51.476;7.770;2023-02-01T09:02:17;5.20;99.90
30764;DHT22;17497;51.476;7.770;2023-02-01T09:04:44;5.30;99.90
30764;DHT22;17497;51.476;7.770;2023-02-01T09:07:11;5.30;99.90
30764;DHT22;17497;51.476;7.770;2023-02-01T09:09:39;5.30;99.90
30764;DHT22;17497;51.476;7.770;2023-02-01T09:12:06;5.30;99.90
30764;DHT22;17497;51.476;7.770;2023-02-01T09:14:33;5.30;99.90
30764;DHT22;17497;51.476;7.770;2023-02-01T09:17:01;5.30;99.90
30764;DHT22;17497;51.476;7.770;2023-02-01T09:19:29;5.30;99.90
30764;DHT22;17497;51.476;7.770;2023-02-01T09:21:55;5.30;99.90
30764;DHT22;17497;51.476;7.770;2023-02-01T09:24:22;5.30;99.90
30764;DHT22;17497;51.476;7.770;2023-02-01T09:26:50;5.30;99.90
30764;DHT22;17497;51.476;7.770;2023-02-01T09:29:19;5.40;99.90
30764;DHT22;17497;51.476;7.770;2023-02-01T09:31:46;5.40;99.90
30764;DHT22;17497;51.476;7.770;2023-02-01T09:34:29;5.40;99.90
30764;DHT22;17497;51.476;7.770;2023-02-01T09:36:55;5.40;99.90
30764;DHT22;17497;51.476;7.770;2023-02-01T09:39:22;5.40;99.90
30764;DHT22;17497;51.476;7.770;2023-02-01T09:44:45;5.50;99.90
30764;DHT22;17497;51.476;7.770;2023-02-01T09:47:21;5.50;99.90
30764;DHT22;17497;51.476;7.770;2023-02-01T09:49:51;5.50;99.90
30764;DHT22;17497;51.476;7.770;2023-02-01T09:52:29;5.50;99.90
30764;DHT22;17497;51.476;7.770;2023-02-01T09:55:19;5.50;99.90
30764;DHT22;17497;51.476;7.770;2023-02-01T09:58:16;5.50;99.90
30764;DHT22;17497;51.476;7.770;2023-02-01T10:00:47;5.50;99.90
30764;DHT22;17497;51.476;7.770;2023-02-01T10:03:14;5.50;99.90
30764;DHT22;17497;51.476;7.770;2023-02-01T10:14:07;5.60;99.90
30764;DHT22;17497;51.476;7.770;2023-02-01T10:16:56;5.60;99.90
30764;DHT22;17497;51.476;7.770;2023-02-01T10:25:04;5.60;99.90
30764;DHT22;17497;51.476;7.770;2023-02-01T10:27:37;5.60;99.90
30764;DHT22;17497;51.476;7.770;2023-02-01T10:30:29;5.60;99.90
30764;DHT22;17497;51.476;7.770;2023-02-01T10:36:23;5.60;99.90
30764;DHT22;17497;51.476;7.770;2023-02-01T10:38:48;5.70;99.90
30764;DHT22;17497;51.476;7.770;2023-02-01T10:41:34;5.70;99.90
30764;DHT22;17497;51.476;7.770;2023-02-01T10:44:07;5.60;99.90
30764;DHT22;17497;51.476;7.770;2023-02-01T10:46:38;5.60;99.90
30764;DHT22;17497;51.476;7.770;2023-02-01T10:49:08;5.60;99.90
30764;DHT22;17497;51.476;7.770;2023-02-01T10:54:19;5.60;99.90
30764;DHT22;17497;51.476;7.770;2023-02-01T10:56:48;5.70;99.90
30764;DHT22;17497;51.476;7.770;2023-02-01T10:59:18;5.70;99.90
30764;DHT22;17497;51.476;7.770;2023-02-01T11:01:47;5.70;99.90
30764;DHT22;17497;51.476;7.770;2023-02-01T11:04:20;5.70;99.90
30764;DHT22;17497;51.476;7.770;2023-02-01T11:09:41;5.60;99.90
30764;DHT22;17497;51.476;7.770;2023-02-01T11:12:33;5.60;99.90
30764;DHT22;17497;51.476;7.770;2023-02-01T11:15:22;5.60;99.90
30764;DHT22;17497;51.476;7.770;2023-02-01T11:17:51;5.60;99.90
30764;DHT22;17497;51.476;7.770;2023-02-01T11:23:00;5.70;99.90
30764;DHT22;17497;51.476;7.770;2023-02-01T11:25:27;5.70;99.90
30764;DHT22;17497;51.476;7.770;2023-02-01T11:27:56;5.70;99.90
30764;DHT22;17497;51.476;7.770;2023-02-01T11:30:38;5.70;99.90
30764;DHT22;17497;51.476;7.770;2023-02-01T11:33:09;5.70;99.90
30764;DHT22;17497;51.476;7.770;2023-02-01T11:35:39;5.80;99.90
30764;DHT22;17497;51.476;7.770;2023-02-01T11:38:27;5.70;99.90
30764;DHT22;17497;51.476;7.770;2023-02-01T11:41:20;5.70;99.90
30764;DHT22;17497;51.476;7.770;2023-02-01T11:43:53;5.70;99.90
30764;DHT22;17497;51.476;7.770;2023-02-01T11:46:28;5.70;99.90
30764;DHT22;17497;51.476;7.770;2023-02-01T11:48:55;5.70;99.90
30764;DHT22;17497;51.476;7.770;2023-02-01T11:54:18;5.70;99.90
30764;DHT22;17497;51.476;7.770;2023-02-01T12:08:54;5.80;99.90
30764;DHT22;17497;51.476;7.770;2023-02-01T12:14:35;5.80;99.90
30764;DHT22;17497;51.476;7.770;2023-02-01T12:28:29;5.50;99.90
30764;DHT22;17497;51.476;7.770;2023-02-01T12:34:03;5.20;99.90
30764;DHT22;17497;51.476;7.770;2023-02-01T12:36:49;5.20;99.90
30764;DHT22;17497;51.476;7.770;2023-02-01T12:39:29;5.10;99.90
30764;DHT22;17497;51.476;7.770;2023-02-01T12:47:13;5.00;99.90
30764;DHT22;17497;51.476;7.770;2023-02-01T12:49:43;5.00;99.90
30764;DHT22;17497;51.476;7.770;2023-02-01T12:52:21;5.00;99.90
30764;DHT22;17497;51.476;7.770;2023-02-01T12:55:01;5.10;99.90
30764;DHT22;17497;51.476;7.770;2023-02-01T12:57:33;5.10;99.90
30764;DHT22;17497;51.476;7.770;2023-02-01T13:02:42;5.20;99.90
30764;DHT22;17497;51.476;7.770;2023-02-01T13:05:22;5.30;99.90
30764;DHT22;17497;51.476;7.770;2023-02-01T13:15:56;5.50;99.90
30764;DHT22;17497;51.476;7.770;2023-02-01T13:18:26;5.50;99.90
30764;DHT22;17497;51.476;7.770;2023-02-01T13:21:06;5.60;99.90
30764;DHT22;17497;51.476;7.770;2023-02-01T13:23:38;5.60;99.90
30764;DHT22;17497;51.476;7.770;2023-02-01T13:26:06;5.60;99.90
30764;DHT22;17497;51.476;7.770;2023-02-01T13:28:52;5.50;99.90
30764;DHT22;17497;51.476;7.770;2023-02-01T13:42:15;5.20;99.90
30764;DHT22;17497;51.476;7.770;2023-02-01T13:47:40;5.20;99.90
30764;DHT22;17497;51.476;7.770;2023-02-01T13:52:59;5.30;99.90
30764;DHT22;17497;51.476;7.770;2023-02-01T13:55:31;5.30;99.90
30764;DHT22;17497;51.476;7.770;2023-02-01T13:58:21;5.30;99.90
30764;DHT22;17497;51.476;7.770;2023-02-01T14:03:56;5.40;99.90
30764;DHT22;17497;51.476;7.770;2023-02-01T14:09:15;5.50;99.90
30764;DHT22;17497;51.476;7.770;2023-02-01T14:11:51;5.40;99.90
30764;DHT22;17497;51.476;7.770;2023-02-01T14:19:23;5.50;99.90
30764;DHT22;17497;51.476;7.770;2023-02-01T14:21:58;5.50;99.90
30764;DHT22;17497;51.476;7.770;2023-02-01T14:24:30;5.60;99.90
30764;DHT22;17497;51.476;7.770;2023-02-01T14:29:53;5.60;99.90
30764;DHT22;17497;51.476;7.770;2023-02-01T14:32:38;5.50;99.90
30764;DHT22;17497;51.476;7.770;2023-02-01T14:35:28;5.50;99.90
30764;DHT22;17497;51.476;7.770;2023-02-01T14:37:59;5.40;99.90
30764;DHT22;17497;51.476;7.770;2023-02-01T14:40:30;5.30;99.90
30764;DHT22;17497;51.476;7.770;2023-02-01T14:42:57;5.40;99.90
30764;DHT22;17497;51.476;7.770;2023-02-01T14:50:44;5.50;99.90
30764;DHT22;17497;51.476;7.770;2023-02-01T14:56:00;5.60;99.90
30764;DHT22;17497;51.476;7.770;2023-02-01T14:59:06;5.60;99.90
30764;DHT22;17497;51.476;7.770;2023-02-01T15:01:38;5.70;99.90
30764;DHT22;17497;51.476;7.770;2023-02-01T15:04:10;5.70;99.90
30764;DHT22;17497;51.476;7.770;2023-02-01T15:06:47;5.60;99.90
30764;DHT22;17497;51.476;7.770;2023-02-01T15:09:20;5.60;99.90
30764;DHT22;17497;51.476;7.770;2023-02-01T15:12:02;5.60;99.90
30764;DHT22;17497;51.476;7.770;2023-02-01T15:14:33;5.60;99.90
30764;DHT22;17497;51.476;7.770;2023-02-01T15:17:00;5.60;99.90
30764;DHT22;17497;51.476;7.770;2023-02-01T15:19:29;5.70;99.90
30764;DHT22;17497;51.476;7.770;2023-02-01T15:21:58;5.70;99.90
30764;DHT22;17497;51.476;7.770;2023-02-01T15:24:27;5.80;99.90
30764;DHT22;17497;51.476;7.770;2023-02-01T15:26:56;5.80;99.90
30764;DHT22;17497;51.476;7.770;2023-02-01T15:29:28;5.90;99.90
30764;DHT22;17497;51.476;7.770;2023-02-01T15:31:59;6.00;99.90
30764;DHT22;17497;51.476;7.770;2023-02-01T15:34:47;6.00;99.90
30764;DHT22;17497;51.476;7.770;2023-02-01T15:37:16;6.00;99.90
30764;DHT22;17497;51.476;7.770;2023-02-01T15:42:55;6.00;99.90
30764;DHT22;17497;51.476;7.770;2023-02-01T15:45:26;6.00;99.90
30764;DHT22;17497;51.476;7.770;2023-02-01T15:47:57;6.00;99.90
30764;DHT22;17497;51.476;7.770;2023-02-01T15:50:24;6.00;99.90
30764;DHT22;17497;51.476;7.770;2023-02-01T15:52:53;5.90;99.90
30764;DHT22;17497;51.476;7.770;2023-02-01T15:55:42;5.80;99.90
30764;DHT22;17497;51.476;7.770;2023-02-01T15:58:21;5.80;99.90
30764;DHT22;17497;51.476;7.770;2023-02-01T16:00:55;5.80;99.90
30764;DHT22;17497;51.476;7.770;2023-02-01T16:04:02;5.80;99.90
30764;DHT22;17497;51.476;7.770;2023-02-01T16:06:30;5.80;99.90
30764;DHT22;17497;51.476;7.770;2023-02-01T16:09:09;5.80;99.90
30764;DHT22;17497;51.476;7.770;2023-02-01T16:11:58;5.90;99.90
30764;DHT22;17497;51.476;7.770;2023-02-01T16:14:26;5.90;99.90
30764;DHT22;17497;51.476;7.770;2023-02-01T16:16:54;6.00;99.90
30764;DHT22;17497;51.476;7.770;2023-02-01T16:19:28;6.00;99.90
30764;DHT22;17497;51.476;7.770;2023-02-01T16:21:55;6.00;99.90
30764;DHT22;17497;51.476;7.770;2023-02-01T16:24:22;6.00;99.90
30764;DHT22;17497;51.476;7.770;2023-02-01T16:26:54;6.10;99.90
30764;DHT22;17497;51.476;7.770;2023-02-01T16:29:21;6.20;99.90
30764;DHT22;17497;51.476;7.770;2023-02-01T16:31:48;6.20;99.90
30764;DHT22;17497;51.476;7.770;2023-02-01T16:34:16;6.10;99.90
30764;DHT22;17497;51.476;7.770;2023-02-01T16:36:47;6.10;99.90
30764;DHT22;17497;51.476;7.770;2023-02-01T16:39:19;6.20;99.90
30764;DHT22;17497;51.476;7.770;2023-02-01T16:41:47;6.20;99.90
30764;DHT22;17497;51.476;7.770;2023-02-01T16:44:13;6.10;99.90
30764;DHT22;17497;51.476;7.770;2023-02-01T16:46:42;6.10;99.90
30764;DHT22;17497;51.476;7.770;2023-02-01T16:49:22;6.00;99.90
30764;DHT22;17497;51.476;7.770;2023-02-01T16:51:51;6.00;99.90
30764;DHT22;17497;51.476;7.770;2023-02-01T16:54:21;6.00;99.90
30764;DHT22;17497;51.476;7.770;2023-02-01T16:56:49;6.00;99.90
30764;DHT22;17497;51.476;7.770;2023-02-01T16:59:16;5.90;99.90
30764;DHT22;17497;51.476;7.770;2023-02-01T17:01:42;6.00;99.90
30764;DHT22;17497;51.476;7.770;2023-02-01T17:04:10;5.90;99.90
30764;DHT22;17497;51.476;7.770;2023-02-01T17:06:39;5.80;99.90
30764;DHT22;17497;51.476;7.770;2023-02-01T17:09:06;5.70;99.90
30764;DHT22;17497;51.476;7.770;2023-02-01T17:11:33;5.60;99.90
30764;DHT22;17497;51.476;7.770;2023-02-01T17:14:18;5.50;99.90
30764;DHT22;17497;51.476;7.770;2023-02-01T17:16:47;5.40;99.90
30764;DHT22;17497;51.476;7.770;2023-02-01T17:19:21;5.40;99.90
30764;DHT22;17497;51.476;7.770;2023-02-01T17:21:54;5.30;99.90
30764;DHT22;17497;51.476;7.770;2023-02-01T17:24:26;5.30;99.90
30764;DHT22;17497;51.476;7.770;2023-02-01T17:27:04;5.20;99.90
30764;DHT22;17497;51.476;7.770;2023-02-01T17:29:31;5.10;99.90
30764;DHT22;17497;51.476;7.770;2023-02-01T17:31:58;5.00;99.90
30764;DHT22;17497;51.476;7.770;2023-02-01T17:34:26;4.90;99.90
30764;DHT22;17497;51.476;7.770;2023-02-01T17:36:53;4.90;99.90
30764;DHT22;17497;51.476;7.770;2023-02-01T17:39:20;4.80;99.90
30764;DHT22;17497;51.476;7.770;2023-02-01T17:42:10;4.80;99.90
30764;DHT22;17497;51.476;7.770;2023-02-01T17:44:37;4.70;99.90
30764;DHT22;17497;51.476;7.770;2023-02-01T17:47:04;4.70;99.90
30764;DHT22;17497;51.476;7.770;2023-02-01T17:49:30;4.60;99.90
30764;DHT22;17497;51.476;7.770;2023-02-01T17:51:57;4.60;99.90
30764;DHT22;17497;51.476;7.770;2023-02-01T17:54:24;4.60;99.90
30764;DHT22;17497;51.476;7.770;2023-02-01T17:56:51;4.60;99.90
30764;DHT22;17497;51.476;7.770;2023-02-01T17:59:18;4.60;99.90
30764;DHT22;17497;51.476;7.770;2023-02-01T18:01:45;4.60;99.90
30764;DHT22;17497;51.476;7.770;2023-02-01T18:04:15;4.60;99.90
30764;DHT22;17497;51.476;7.770;2023-02-01T18:06:42;4.50;99.90
30764;DHT22;17497;51.476;7.770;2023-02-01T18:09:09;4.50;99.90
30764;DHT22;17497;51.476;7.770;2023-02-01T18:11:36;4.50;99.90
30764;DHT22;17497;51.476;7.770;2023-02-01T18:14:03;4.50;99.90
30764;DHT22;17497;51.476;7.770;2023-02-01T18:16:32;4.50;99.90
30764;DHT22;17497;51.476;7.770;2023-02-01T18:18:59;4.40;99.90
30764;DHT22;17497;51.476;7.770;2023-02-01T18:21:39;4.40;99.90
30764;DHT22;17497;51.476;7.770;2023-02-01T18:24:11;4.40;99.90
30764;DHT22;17497;51.476;7.770;2023-02-01T18:26:38;4.40;99.90
30764;DHT22;17497;51.476;7.770;2023-02-01T18:29:05;4.40;99.90
30764;DHT22;17497;51.476;7.770;2023-02-01T18:31:34;4.50;99.90
30764;DHT22;17497;51.476;7.770;2023-02-01T18:34:02;4.50;99.90
30764;DHT22;17497;51.476;7.770;2023-02-01T18:36:30;4.50;99.90